Weather at Bartow Executive Airport

Public forecast

Using degrees Fahrenheit for public forecast. Weather courtesy of forecast.io.

Current aviation weather report (METAR) for Bartow Executive Airport

Retrieved 2020/09/21 13:50 UTC (1 hour ago):

KBOW 211350Z 03008G19KT 10SM FEW015 28/22 A3007

Closest aviation forecast (TAF) to Bartow Executive Airport

Closest forecast is Lakeland Linder International Airport, 12.8 nm (23.6 km) WNW. Retrieved 2020/09/21 12:42 UTC (2 hours ago):

TAF KLAL 211140Z 2112/2212 06012KT P6SM VCSH SCT025 BKN050 FM211400 06020G26KT P6SM SCT025 BKN035 FM211800 06022G29KT P6SM BKN035 FM220100 06014G20KT P6SM BKN050 FM220500 06010KT P6SM SCT050